Akron, OH (44301)

9:29 AM EST on February 09, 2016 (GMT -0500)
Pro-Tech Systems Group | | Change Station
CLOSE
Current Station
Personal Weather Station
Location: Akron, OH
Elevation: 1004 ft
Nearby Weather Stations

Elev 1004 ft 41.03 °N, 81.52 °W | Updated 44 seconds ago

Overcast
Overcast
30.2 °F
Feels Like 24 °F
N
6.0
Wind Variable Wind from SSW
Gusts 10.0 mph

Today
High -- | Low -- °F
--% Chance of Precip.
Yesterday
High -- | Low -- °F
Precip. -- in
Pressure 29.58 in
Visibility 8.0 miles
Clouds Overcast 1400 ft
Windchill 24 °F
Dew Point 27 °F
Humidity 86%
Rainfall 0.00 in
Snow Depth Not available.
7:28 AM 5:52 PM
New Moon, 1% visible
SPECI KAKR 091406Z AUTO 28008KT 8SM OVC014 M01/M04 A2958 RMK AO2 T10061039
Pressure 29.58 in
Visibility 8.0 miles
Clouds Overcast 1400 ft
Windchill 24 °F
Dew Point 27 °F
Humidity 86%
Rainfall 0.00 in
Snow Depth Not available.
7:28 AM 5:52 PM
New Moon, 1% visible
SPECI KAKR 091406Z AUTO 28008KT 8SM OVC014 M01/M04 A2958 RMK AO2 T10061039

10-Day Weather Forecast

Almanac

Astronomy

Feb. 09, 2016 Rise Set
Actual Time
Civil Twilight
Nautical Twilight
Astronomical Twilight
Moon
Length of Visible Light
Length of Day
Tomorrow will be .
, % of the Moon is Illuminated

Today's Extremes

State Highs State Lows

Community

WunderPhotos

Upload Photos

1,891,602 photos uploaded!

WunderBlog® & News

Nearby

Air Quality

  Air Quality AQ Index Pollutant
Not available.

Snow Depth

Station Depth Elevation

Earthquake Activity

City Distance Mag. Time & Date
Minimum magnitude displayed is 2.5.

Coastal Water Temperatures

Place Temperature

Stations

Nearby Weather Stations

Station Location Temp. Windchill Dew Point Humidity Wind Precip. Elev Updated Type
                   

Watches & Warnings

There are currently no watches in effect.